Time;durP1;ratioP1;P1;durP2;ratioP2;P2;SDS_P1;SDS_P2;PMS_P1;PMS_P2;Temp;Humidity;BMP_temperature;BMP_pressure;BME280_temperature;BME280_humidity;BME280_pressure;Samples;Min_cycle;Max_cycle;Signal;HPM_P1;HPM_P2
2021/06/23 00:00:41;;;;;;;33.60;8.27;;;;;;;20.69;91.55;94967.84;5085577;28;20055;-68
2021/06/23 00:03:08;;;;;;;35.92;9.88;;;;;;;20.65;90.16;94966.06;5090223;28;20035;-68
2021/06/23 00:05:35;;;;;;;41.92;8.77;;;;;;;20.69;91.13;94978.41;5089993;28;20060;-68
2021/06/23 00:08:02;;;;;;;41.35;10.48;;;;;;;20.67;91.02;94977.94;5088498;28;20048;-68
2021/06/23 00:10:29;;;;;;;41.28;9.65;;;;;;;20.66;90.68;94979.00;5088498;28;20051;-68
2021/06/23 00:13:09;;;;;;;32.28;8.48;;;;;;;20.67;91.00;94979.78;5091206;28;20457;-69
2021/06/23 00:15:37;;;;;;;52.08;10.48;;;;;;;20.66;91.19;94984.28;5088519;28;20485;-68
2021/06/23 00:18:05;;;;;;;46.42;9.48;;;;;;;20.65;90.85;94992.50;5091586;28;20528;-69
2021/06/23 00:20:33;;;;;;;50.60;9.23;;;;;;;20.58;91.11;95003.44;5088070;28;20596;-69
2021/06/23 00:23:00;;;;;;;26.92;9.10;;;;;;;20.51;90.79;94981.84;5087219;28;20509;-69
2021/06/23 00:25:27;;;;;;;38.10;10.32;;;;;;;20.54;90.92;94991.88;5089809;28;20039;-68
2021/06/23 00:27:54;;;;;;;40.22;8.93;;;;;;;20.46;90.82;94984.59;5087861;28;20036;-69
2021/06/23 00:30:21;;;;;;;38.03;9.02;;;;;;;20.48;90.41;94998.31;5085380;28;20494;-69
2021/06/23 00:32:51;;;;;;;30.02;8.43;;;;;;;20.25;92.76;95003.41;5085030;28;20127;-68
2021/06/23 00:35:18;;;;;;;39.28;9.38;;;;;;;20.21;92.71;94999.78;5085866;28;20085;-68
2021/06/23 00:37:45;;;;;;;38.88;9.18;;;;;;;20.17;92.69;95004.88;5085764;28;20148;-68
2021/06/23 00:40:13;;;;;;;33.13;9.57;;;;;;;20.18;92.36;95000.34;5082602;28;20050;-68
2021/06/23 00:42:42;;;;;;;33.67;9.43;;;;;;;20.12;92.08;94980.38;5083887;28;20044;-68
2021/06/23 00:45:13;;;;;;;44.97;9.63;;;;;;;20.22;92.37;94990.75;5085355;28;20127;-68
2021/06/23 00:47:44;;;;;;;41.00;7.97;;;;;;;20.23;92.82;94987.06;5083786;28;20056;-68
2021/06/23 00:50:14;;;;;;;39.92;9.85;;;;;;;20.25;93.46;94990.19;5084945;28;20036;-69
2021/06/23 00:52:54;;;;;;;50.47;8.98;;;;;;;20.21;93.06;94990.00;5083386;28;20067;-68
2021/06/23 00:55:29;;;;;;;34.47;10.73;;;;;;;20.12;92.88;94977.72;5085314;28;20513;-69
2021/06/23 00:57:57;;;;;;;51.60;9.68;;;;;;;20.19;92.49;94986.06;5083570;28;20062;-69
2021/06/23 01:00:28;;;;;;;35.25;9.80;;;;;;;20.18;92.30;94992.41;5085188;28;20390;-69
2021/06/23 01:03:00;;;;;;;44.10;9.48;;;;;;;20.04;92.52;94974.66;5084842;28;20047;-69
2021/06/23 01:05:29;;;;;;;29.38;7.90;;;;;;;20.12;92.89;94996.22;5084698;28;20040;-68
2021/06/23 01:07:57;;;;;;;38.05;8.68;;;;;;;20.07;93.22;94994.44;5083503;28;20100;-69
2021/06/23 01:10:30;;;;;;;47.83;9.77;;;;;;;20.00;93.01;94988.72;5087953;28;20044;-68
2021/06/23 01:13:16;;;;;;;41.53;8.88;;;;;;;19.86;92.28;94981.50;5083988;28;20105;-68
2021/06/23 01:15:44;;;;;;;25.00;7.43;;;;;;;19.78;91.90;94976.06;5084618;28;20091;-69
2021/06/23 01:18:12;;;;;;;44.22;10.73;;;;;;;19.71;92.23;94988.81;5086619;28;20074;-69
2021/06/23 01:20:47;;;;;;;49.00;11.18;;;;;;;19.59;92.53;94968.91;5086488;28;20032;-69
2021/06/23 01:23:15;;;;;;;40.03;8.80;;;;;;;19.57;92.98;94975.53;5086348;28;20565;-68
2021/06/23 01:25:44;;;;;;;48.92;9.40;;;;;;;19.52;93.93;94968.47;5086496;28;20050;-68
2021/06/23 01:28:11;;;;;;;38.13;10.05;;;;;;;19.47;94.38;94971.16;5088628;28;20036;-68
2021/06/23 01:30:50;;;;;;;50.22;13.10;;;;;;;19.41;94.75;94972.28;5083686;28;20071;-68
2021/06/23 01:33:26;;;;;;;43.58;10.38;;;;;;;19.40;95.22;94973.38;5087578;28;20054;-68
2021/06/23 01:35:53;;;;;;;42.60;10.07;;;;;;;19.43;95.08;94972.81;5086060;28;20036;-68
2021/06/23 01:38:20;;;;;;;38.55;9.23;;;;;;;19.35;95.46;94962.84;5085209;28;20070;-68
2021/06/23 01:40:48;;;;;;;46.03;9.05;;;;;;;19.27;96.25;94962.41;5089847;28;20064;-68
2021/06/23 01:43:16;;;;;;;49.95;10.82;;;;;;;19.21;96.92;94955.63;5088115;28;20578;-68
2021/06/23 01:45:45;;;;;;;37.45;11.10;;;;;;;19.32;97.07;94968.69;5085899;28;20048;-68
2021/06/23 01:48:18;;;;;;;40.35;9.95;;;;;;;19.34;96.84;94971.84;5086913;28;20040;-68
2021/06/23 01:50:52;;;;;;;49.42;12.40;;;;;;;19.39;96.76;94974.41;5087729;28;20116;-68
2021/06/23 01:53:19;;;;;;;40.65;10.18;;;;;;;19.42;96.60;94979.16;5086507;28;20044;-68
2021/06/23 01:55:47;;;;;;;41.17;10.88;;;;;;;19.46;96.38;94980.16;5090893;28;20521;-68
2021/06/23 01:58:16;;;;;;;36.10;9.23;;;;;;;19.54;96.28;94971.59;5087909;28;20420;-68
2021/06/23 02:00:52;;;;;;;36.60;9.13;;;;;;;19.54;96.47;94966.31;5085973;28;20548;-68
2021/06/23 02:03:31;;;;;;;35.58;9.85;;;;;;;19.53;96.92;94970.03;5086564;28;20077;-68
2021/06/23 02:05:59;;;;;;;37.95;9.35;;;;;;;19.50;96.91;94975.88;5089386;28;20122;-68
2021/06/23 02:08:51;;;;;;;42.30;9.57;;;;;;;19.50;96.97;94970.59;5092461;28;20042;-68
2021/06/23 02:11:27;;;;;;;34.92;9.93;;;;;;;19.51;96.62;94980.09;5089449;28;20048;-68
2021/06/23 02:14:36;;;;;;;38.88;9.27;;;;;;;19.48;97.64;94988.56;5092246;28;20055;-68
2021/06/23 02:17:26;;;;;;;32.83;8.98;;;;;;;19.42;97.34;94984.44;5059888;28;20075;-68
2021/06/23 02:20:09;;;;;;;43.33;9.38;;;;;;;19.00;99.66;94985.97;5086332;28;20134;-68
2021/06/23 02:22:38;;;;;;;39.08;10.80;;;;;;;18.78;100.00;94987.19;5089033;28;20036;-68
2021/06/23 02:25:13;;;;;;;50.22;10.93;;;;;;;18.86;99.96;94994.53;5089019;28;20048;-68
2021/06/23 02:27:50;;;;;;;36.83;9.57;;;;;;;18.84;99.33;95001.94;5090215;28;20040;-68
2021/06/23 02:30:18;;;;;;;35.38;8.63;;;;;;;18.86;98.32;94999.81;5088813;28;20055;-68
2021/06/23 02:32:54;;;;;;;45.13;8.75;;;;;;;18.87;96.90;95001.38;5089004;28;20070;-68
2021/06/23 02:35:26;;;;;;;41.58;9.98;;;;;;;18.86;96.09;95002.44;5087172;28;20134;-68
2021/06/23 02:37:58;;;;;;;33.05;10.07;;;;;;;18.87;95.73;95011.94;5069156;28;20048;-68
2021/06/23 02:40:25;;;;;;;40.30;10.50;;;;;;;18.85;95.13;95014.06;5088431;28;20161;-68
2021/06/23 02:43:04;;;;;;;38.03;8.00;;;;;;;18.79;94.93;95009.88;5086055;28;20136;-68
2021/06/23 02:45:31;;;;;;;33.63;8.88;;;;;;;18.69;95.74;95015.22;5086516;28;20051;-68
2021/06/23 02:48:00;;;;;;;42.78;8.30;;;;;;;18.64;95.38;95007.38;5084372;28;20417;-68
2021/06/23 02:50:54;;;;;;;50.88;9.65;;;;;;;18.68;94.99;95016.31;5088562;28;20048;-68
2021/06/23 02:53:25;;;;;;;48.42;9.77;;;;;;;18.65;94.98;95019.50;5088941;28;20064;-68
2021/06/23 02:55:55;;;;;;;35.40;8.20;;;;;;;18.63;95.10;95030.31;5088413;28;20048;-68
2021/06/23 02:58:23;;;;;;;45.72;9.40;;;;;;;18.62;95.41;95026.13;5085377;28;20116;-68
2021/06/23 03:00:53;;;;;;;40.33;10.88;;;;;;;18.64;95.06;95023.22;5090248;28;20130;-68
2021/06/23 03:03:28;;;;;;;33.42;9.57;;;;;;;18.57;95.56;95028.00;5088379;28;20051;-68
2021/06/23 03:06:01;;;;;;;41.65;10.98;;;;;;;18.46;96.42;95022.81;5086037;28;20082;-67
2021/06/23 03:08:28;;;;;;;40.10;9.95;;;;;;;18.33;96.58;95013.69;5085546;28;20043;-68
2021/06/23 03:10:56;;;;;;;42.22;9.45;;;;;;;18.34;97.46;95030.28;5084926;28;20127;-68
2021/06/23 03:13:41;;;;;;;33.35;10.15;;;;;;;18.33;97.81;95034.00;5086871;28;20116;-68
2021/06/23 03:16:21;;;;;;;34.22;9.95;;;;;;;18.36;97.90;95036.06;5087682;28;20048;-67
2021/06/23 03:18:49;;;;;;;48.15;11.45;;;;;;;18.40;98.08;95036.28;5084859;28;20044;-67
2021/06/23 03:21:16;;;;;;;37.95;10.55;;;;;;;18.45;98.30;95038.91;5088549;28;20425;-67
2021/06/23 03:23:49;;;;;;;43.63;10.98;;;;;;;18.50;98.10;95039.66;5087468;28;20074;-68
2021/06/23 03:26:21;;;;;;;43.97;12.20;;;;;;;18.60;97.32;95043.25;5084018;28;20040;-68
2021/06/23 03:28:51;;;;;;;39.00;9.85;;;;;;;18.67;96.69;95049.00;5085698;28;20043;-68
2021/06/23 03:31:21;;;;;;;33.47;10.95;;;;;;;18.62;96.36;95035.84;5087980;28;20433;-67
2021/06/23 03:33:48;;;;;;;40.58;12.38;;;;;;;18.76;96.58;95057.91;5087235;28;20047;-68
2021/06/23 03:36:37;;;;;;;35.97;10.95;;;;;;;18.79;96.83;95046.81;5085101;28;20042;-67
2021/06/23 03:39:05;;;;;;;39.38;11.48;;;;;;;18.84;96.86;95054.72;5085144;28;20048;-68
2021/06/23 03:41:44;;;;;;;32.70;11.10;;;;;;;18.95;96.81;95059.91;5087497;28;20109;-68
2021/06/23 03:44:11;;;;;;;42.58;11.10;;;;;;;19.02;96.97;95060.38;5087579;28;20527;-68
2021/06/23 03:46:38;;;;;;;49.72;11.65;;;;;;;19.09;96.48;95068.75;5089098;28;20040;-68
2021/06/23 03:49:06;;;;;;;50.08;12.68;;;;;;;19.14;96.69;95074.00;5087994;28;20048;-67
2021/06/23 03:51:36;;;;;;;36.50;10.13;;;;;;;19.18;96.71;95064.44;5087538;28;20043;-68
2021/06/23 03:54:04;;;;;;;38.78;13.10;;;;;;;19.25;96.25;95059.59;5084547;28;20506;-67
2021/06/23 03:56:37;;;;;;;34.88;10.93;;;;;;;19.35;96.39;95071.13;5084518;28;20047;-68
2021/06/23 03:59:04;;;;;;;38.40;11.93;;;;;;;19.40;96.63;95071.09;5087244;28;20763;-68
2021/06/23 04:01:31;;;;;;;37.95;11.68;;;;;;;19.46;96.66;95075.22;5089011;28;20046;-68
2021/06/23 04:04:24;;;;;;;39.17;11.18;;;;;;;19.53;96.73;95080.97;5084977;28;20140;-67
2021/06/23 04:07:01;;;;;;;43.92;10.73;;;;;;;19.52;96.89;95068.84;5087148;28;20051;-68
2021/06/23 04:09:30;;;;;;;26.67;10.25;;;;;;;19.59;96.91;95074.56;5084587;28;20135;-68
2021/06/23 04:12:04;;;;;;;33.22;11.40;;;;;;;19.72;97.49;95067.81;5089972;28;20786;-68
2021/06/23 04:14:43;;;;;;;37.67;11.65;;;;;;;19.81;97.58;95081.22;5087130;28;20590;-68
2021/06/23 04:17:11;;;;;;;33.80;11.60;;;;;;;19.77;98.14;95080.19;5087285;28;20039;-68
2021/06/23 04:19:38;;;;;;;43.97;13.27;;;;;;;19.87;98.82;95085.38;5088547;28;20066;-68
2021/06/23 04:22:09;;;;;;;37.97;10.68;;;;;;;19.88;98.92;95086.94;5085719;28;20046;-68
2021/06/23 04:24:36;;;;;;;39.85;11.40;;;;;;;19.90;99.39;95079.53;5088641;28;20147;-68
2021/06/23 04:27:07;;;;;;;45.00;13.43;;;;;;;20.08;100.00;95093.03;5087323;28;20042;-67
2021/06/23 04:29:37;;;;;;;45.58;13.43;;;;;;;20.15;100.00;95091.63;5087381;28;20510;-67
2021/06/23 04:32:05;;;;;;;48.08;14.13;;;;;;;20.21;100.00;95090.47;5084253;28;20541;-67
2021/06/23 04:34:34;;;;;;;44.17;11.80;;;;;;;20.29;100.00;95096.19;5085391;28;20122;-68
2021/06/23 04:37:17;;;;;;;58.30;14.83;;;;;;;20.38;100.00;95103.22;5086256;28;20452;-68
2021/06/23 04:39:48;;;;;;;47.63;13.35;;;;;;;20.42;100.00;95106.09;5087687;28;20040;-68
2021/06/23 04:42:16;;;;;;;56.75;14.30;;;;;;;20.46;100.00;95106.28;5088400;28;20048;-68
2021/06/23 04:44:46;;;;;;;38.03;11.90;;;;;;;20.42;99.37;95101.56;5089912;28;20044;-68
2021/06/23 04:47:15;;;;;;;43.30;12.30;;;;;;;20.53;99.37;95112.00;5088484;28;20119;-68
2021/06/23 04:49:43;;;;;;;42.75;15.07;;;;;;;20.57;98.98;95100.56;5082164;28;20071;-68
2021/06/23 04:52:16;;;;;;;44.28;13.52;;;;;;;20.68;98.15;95103.88;5084187;28;20047;-68
2021/06/23 04:54:43;;;;;;;56.30;13.15;;;;;;;20.67;98.34;95107.59;5082771;28;20444;-69
2021/06/23 04:57:10;;;;;;;51.03;12.98;;;;;;;20.78;97.78;95114.31;5083806;28;20888;-68
2021/06/23 04:59:37;;;;;;;47.55;12.23;;;;;;;20.85;96.64;95115.78;5079557;28;20072;-68
2021/06/23 05:02:05;;;;;;;50.30;13.52;;;;;;;20.87;94.77;95118.94;5082240;28;20047;-68
2021/06/23 05:04:33;;;;;;;42.60;11.85;;;;;;;20.86;94.57;95120.78;5080961;28;20135;-68
2021/06/23 05:07:06;;;;;;;50.25;12.95;;;;;;;20.97;94.80;95126.72;5082778;28;20036;-68
2021/06/23 05:09:37;;;;;;;37.15;10.85;;;;;;;21.06;94.24;95124.97;5083414;28;20093;-68
2021/06/23 05:12:07;;;;;;;53.85;14.70;;;;;;;21.14;94.59;95126.97;5082869;28;20044;-68
2021/06/23 05:14:36;;;;;;;43.33;12.13;;;;;;;21.24;92.54;95125.22;5084618;28;20046;-68
2021/06/23 05:17:03;;;;;;;49.42;13.85;;;;;;;21.25;92.18;95116.19;5069692;28;20390;-68
2021/06/23 05:19:30;;;;;;;51.42;13.20;;;;;;;21.30;92.10;95124.84;5089052;28;20047;-68
2021/06/23 05:22:01;;;;;;;53.25;12.13;;;;;;;21.36;91.65;95122.91;5088947;28;20040;-68
2021/06/23 05:24:30;;;;;;;47.38;10.77;;;;;;;21.42;92.23;95121.72;5087415;28;20046;-67
2021/06/23 05:26:57;;;;;;;53.33;13.38;;;;;;;21.46;92.51;95119.31;5087383;28;20059;-67
2021/06/23 05:29:24;;;;;;;51.35;11.40;;;;;;;21.55;91.15;95125.50;5088223;28;20517;-68
2021/06/23 05:31:50;;;;;;;51.70;11.80;;;;;;;21.59;91.62;95126.50;5088324;28;20047;-68
2021/06/23 05:34:17;;;;;;;49.00;13.02;;;;;;;21.65;91.28;95127.19;5088548;28;20036;-68
2021/06/23 05:36:44;;;;;;;45.53;12.98;;;;;;;21.68;91.51;95123.94;5087907;28;20043;-68
2021/06/23 05:39:11;;;;;;;49.53;12.95;;;;;;;21.82;91.63;95130.03;5088697;28;20162;-67
2021/06/23 05:41:38;;;;;;;58.22;14.35;;;;;;;21.83;90.99;95128.94;5088692;28;20044;-69
2021/06/23 05:44:05;;;;;;;48.45;11.10;;;;;;;21.89;91.39;95125.09;5088130;28;20409;-68
2021/06/23 05:46:31;;;;;;;43.88;12.02;;;;;;;21.92;88.97;95121.88;5087712;28;20425;-69
2021/06/23 05:48:58;;;;;;;42.55;12.27;;;;;;;22.04;88.61;95136.50;5088078;28;20036;-68
2021/06/23 05:51:25;;;;;;;52.25;11.70;;;;;;;22.11;88.94;95131.56;5088138;28;20046;-68
2021/06/23 05:53:52;;;;;;;34.75;11.05;;;;;;;22.23;88.11;95139.81;5087444;28;20054;-68
2021/06/23 05:56:19;;;;;;;41.80;10.52;;;;;;;22.24;87.93;95130.78;5087843;28;20036;-68
2021/06/23 05:58:46;;;;;;;44.55;11.10;;;;;;;22.28;88.09;95147.72;5086187;28;20054;-68
2021/06/23 06:01:12;;;;;;;58.30;12.30;;;;;;;22.36;88.75;95142.78;5088061;28;20036;-68
2021/06/23 06:03:39;;;;;;;53.17;11.60;;;;;;;22.48;88.63;95137.75;5088465;28;20040;-68
2021/06/23 06:06:06;;;;;;;50.30;11.90;;;;;;;22.62;87.67;95143.81;5088105;28;20036;-68
2021/06/23 06:08:33;;;;;;;50.88;9.95;;;;;;;22.75;85.96;95138.75;5088267;28;20043;-68
2021/06/23 06:11:00;;;;;;;47.88;10.75;;;;;;;22.92;84.45;95149.50;5088003;28;20425;-68
2021/06/23 06:13:28;;;;;;;45.50;10.52;;;;;;;22.99;84.27;95143.75;5087996;28;20047;-68
2021/06/23 06:15:55;;;;;;;52.22;9.68;;;;;;;23.01;81.77;95147.72;5087778;28;20059;-68
2021/06/23 06:18:24;;;;;;;42.58;9.70;;;;;;;23.15;82.11;95141.56;5088149;28;20059;-68
2021/06/23 06:20:57;;;;;;;41.40;9.18;;;;;;;23.25;79.28;95143.97;5087580;28;20127;-69
2021/06/23 06:23:25;;;;;;;44.50;9.32;;;;;;;23.36;78.91;95147.94;5088055;28;20040;-69
2021/06/23 06:25:52;;;;;;;38.28;9.07;;;;;;;23.47;76.58;95149.25;5087769;28;20169;-68
2021/06/23 06:28:20;;;;;;;45.63;9.10;;;;;;;23.51;76.72;95148.66;5086316;28;20409;-68
2021/06/23 06:30:48;;;;;;;48.53;11.77;;;;;;;23.61;77.59;95145.72;5087627;28;20050;-68
2021/06/23 06:33:15;;;;;;;42.45;11.77;;;;;;;23.67;76.53;95144.50;5087189;28;20141;-68
2021/06/23 06:35:42;;;;;;;47.80;10.77;;;;;;;23.80;77.81;95146.28;5088402;28;20067;-68
2021/06/23 06:38:09;;;;;;;42.63;10.75;;;;;;;23.92;75.80;95144.94;5085236;28;20043;-67
2021/06/23 06:40:36;;;;;;;48.97;9.55;;;;;;;24.10;75.38;95162.53;5071582;28;20515;-67
2021/06/23 06:43:03;;;;;;;43.28;9.82;;;;;;;24.27;75.72;95158.31;5083520;28;20047;-68
2021/06/23 06:45:30;;;;;;;50.47;10.45;;;;;;;24.39;75.35;95155.84;5085018;28;20056;-69
2021/06/23 06:47:57;;;;;;;43.05;10.95;;;;;;;24.48;75.32;95159.31;5088050;28;20070;-68
2021/06/23 06:50:24;;;;;;;48.13;12.10;;;;;;;24.64;75.51;95156.25;5086826;28;20042;-68
2021/06/23 06:52:51;;;;;;;57.13;10.85;;;;;;;24.68;74.71;95146.53;5086191;28;20506;-68
2021/06/23 06:55:21;;;;;;;55.10;11.80;;;;;;;24.90;74.01;95149.03;5086358;28;20040;-68
2021/06/23 06:57:52;;;;;;;46.95;10.80;;;;;;;25.01;73.81;95149.47;5086005;28;20064;-69
2021/06/23 07:00:20;;;;;;;46.97;11.07;;;;;;;25.14;73.36;95163.75;5087309;28;20048;-69
2021/06/23 07:02:48;;;;;;;45.47;11.68;;;;;;;25.22;74.97;95165.59;5086043;28;20039;-69
2021/06/23 07:05:15;;;;;;;55.60;11.98;;;;;;;25.43;74.07;95159.66;5086261;28;20047;-69
2021/06/23 07:07:42;;;;;;;59.67;11.90;;;;;;;25.56;73.36;95159.44;5087119;28;20036;-69
2021/06/23 07:10:10;;;;;;;56.67;10.93;;;;;;;25.76;71.86;95163.28;5087034;28;20036;-69
2021/06/23 07:12:36;;;;;;;54.05;11.88;;;;;;;25.89;72.27;95166.06;5087247;28;20054;-69
2021/06/23 07:15:05;;;;;;;51.03;12.07;;;;;;;25.99;72.93;95155.09;5086822;28;20137;-68
2021/06/23 07:17:32;;;;;;;39.92;10.43;;;;;;;26.16;72.26;95162.22;5085356;28;20070;-69
2021/06/23 07:19:59;;;;;;;56.13;13.05;;;;;;;26.28;70.73;95156.19;5086762;28;20413;-69
2021/06/23 07:22:25;;;;;;;53.28;12.40;;;;;;;26.28;71.22;95166.88;5086707;28;20147;-69
2021/06/23 07:24:53;;;;;;;38.95;11.00;;;;;;;26.33;71.47;95148.00;5086676;28;20048;-69
2021/06/23 07:27:21;;;;;;;43.70;11.57;;;;;;;26.32;72.85;95155.22;5086879;28;20570;-69
2021/06/23 07:29:50;;;;;;;46.28;10.65;;;;;;;26.49;72.48;95156.22;5085367;28;20382;-69
2021/06/23 07:33:06;;;;;;;56.17;12.07;;;;;;;26.69;70.12;95150.13;5079119;28;20597;-69
2021/06/23 07:37:51;;;;;;;59.80;12.68;;;;;;;26.93;66.80;95147.91;5077783;28;20038;-69
2021/06/23 07:40:21;;;;;;;59.97;12.98;;;;;;;27.06;68.01;95154.84;5083187;28;20055;-68
2021/06/23 07:42:48;;;;;;;58.80;12.68;;;;;;;27.26;68.88;95148.75;5084037;28;20043;-68
2021/06/23 07:45:15;;;;;;;70.45;13.38;;;;;;;27.46;66.65;95151.69;5082569;28;20052;-69
2021/06/23 07:47:42;;;;;;;48.83;12.65;;;;;;;27.58;67.03;95145.56;5087122;28;20036;-69
2021/06/23 07:50:13;;;;;;;45.10;11.63;;;;;;;27.74;64.86;95151.06;5086263;28;20118;-69
2021/06/23 07:53:27;;;;;;;74.40;14.15;;;;;;;27.78;65.25;95151.94;5086444;28;20114;-68
2021/06/23 07:55:51;;;;;;;66.70;12.35;;;;;;;27.82;65.54;95158.19;5082857;28;20132;-68
2021/06/23 08:09:24;;;;;;;59.35;12.30;;;;;;;28.28;61.77;95166.94;5084754;28;20046;-68
2021/06/23 08:11:55;;;;;;;46.03;10.23;;;;;;;28.48;60.40;95164.47;5085934;28;20040;-69
2021/06/23 08:14:22;;;;;;;51.20;11.25;;;;;;;28.53;62.07;95148.16;5085962;28;20040;-68
2021/06/23 08:16:48;;;;;;;47.17;11.45;;;;;;;28.86;61.89;95163.28;5087310;28;20036;-68
2021/06/23 08:19:16;;;;;;;55.33;11.02;;;;;;;29.05;62.14;95165.34;5085930;28;20046;-68
2021/06/23 08:21:42;;;;;;;53.15;10.55;;;;;;;29.10;59.59;95147.13;5086357;28;20040;-68
2021/06/23 08:24:09;;;;;;;48.33;11.20;;;;;;;29.29;60.20;95159.91;5086801;28;20040;-68
2021/06/23 08:26:37;;;;;;;49.10;10.63;;;;;;;29.33;59.79;95165.34;5085760;28;20519;-68
2021/06/23 08:29:04;;;;;;;47.20;9.88;;;;;;;29.48;59.94;95161.94;5085356;28;20032;-68
2021/06/23 08:31:30;;;;;;;49.35;10.27;;;;;;;29.52;59.48;95162.78;5084998;28;20050;-68
2021/06/23 08:33:58;;;;;;;53.58;10.18;;;;;;;29.74;60.46;95168.69;5085945;28;20048;-68
2021/06/23 08:36:25;;;;;;;44.58;9.05;;;;;;;30.01;58.83;95177.81;5085470;28;20040;-69
2021/06/23 08:38:52;;;;;;;48.65;9.90;;;;;;;29.98;57.51;95172.38;5085354;28;20044;-69
2021/06/23 08:41:25;;;;;;;60.97;9.50;;;;;;;30.00;56.27;95162.06;5085560;28;20035;-69
2021/06/23 08:43:55;;;;;;;62.25;10.32;;;;;;;30.29;55.97;95177.72;5083988;28;20689;-69
2021/06/23 08:46:22;;;;;;;53.50;10.77;;;;;;;30.55;57.30;95173.72;5085423;28;20055;-68
2021/06/23 08:48:49;;;;;;;52.22;11.80;;;;;;;30.72;56.13;95166.38;5087842;28;20036;-69
2021/06/23 08:51:16;;;;;;;42.95;9.98;;;;;;;30.92;55.07;95176.06;5091350;28;20048;-69
2021/06/23 08:53:43;;;;;;;54.55;9.68;;;;;;;30.88;54.06;95169.78;5091745;28;20051;-69
2021/06/23 08:56:10;;;;;;;53.25;10.30;;;;;;;30.95;53.77;95169.94;5089579;28;20043;-69
2021/06/23 08:58:36;;;;;;;52.45;9.80;;;;;;;31.13;51.66;95166.84;5089295;28;20048;-69
2021/06/23 09:01:04;;;;;;;56.85;9.32;;;;;;;31.35;49.36;95166.13;5089635;28;20048;-69
2021/06/23 09:03:31;;;;;;;47.20;10.35;;;;;;;31.39;50.71;95172.34;5088397;28;20074;-69
2021/06/23 09:05:59;;;;;;;44.15;9.70;;;;;;;31.65;52.30;95173.59;5089443;28;20040;-68
2021/06/23 09:08:34;;;;;;;52.67;9.20;;;;;;;31.78;50.00;95156.13;5089155;28;20067;-68
2021/06/23 09:11:15;;;;;;;45.95;8.73;;;;;;;32.01;44.73;95163.41;5086333;28;20111;-69
2021/06/23 09:13:43;;;;;;;34.70;8.13;;;;;;;32.04;44.64;95164.66;5086958;28;20435;-69
2021/06/23 09:16:11;;;;;;;45.60;8.65;;;;;;;32.18;45.83;95162.94;5088337;28;20050;-69
2021/06/23 09:18:41;;;;;;;43.30;8.57;;;;;;;32.53;43.76;95172.69;5086837;28;20700;-69
2021/06/23 09:21:20;;;;;;;37.67;9.57;;;;;;;32.93;43.51;95168.59;5088471;28;20040;-68
2021/06/23 09:23:57;;;;;;;47.83;8.65;;;;;;;33.20;41.49;95171.25;5088667;28;21509;-70
2021/06/23 09:26:37;;;;;;;49.72;9.43;;;;;;;33.38;42.46;95167.97;5088873;28;20051;-69
2021/06/23 09:29:16;;;;;;;44.45;9.05;;;;;;;33.65;42.13;95168.63;5088171;27;20052;-69
2021/06/23 09:31:58;;;;;;;46.58;8.63;;;;;;;33.84;38.89;95175.78;5089556;28;20075;-69
2021/06/23 09:34:31;;;;;;;54.28;8.43;;;;;;;34.03;37.40;95155.84;5088289;28;20109;-70
2021/06/23 09:36:59;;;;;;;59.33;6.75;;;;;;;34.34;37.92;95164.59;5086260;28;20036;-69
2021/06/23 09:39:28;;;;;;;48.45;8.25;;;;;;;34.46;38.24;95156.94;5085075;28;20044;-69
2021/06/23 09:41:55;;;;;;;42.67;7.90;;;;;;;34.80;37.68;95164.88;5087406;28;20125;-70
2021/06/23 09:44:23;;;;;;;39.47;7.32;;;;;;;34.88;37.41;95168.41;5088774;28;20063;-69
2021/06/23 09:46:51;;;;;;;30.05;6.03;;;;;;;34.29;35.91;95171.16;5086046;28;20040;-69
2021/06/23 09:49:22;;;;;;;46.78;8.18;;;;;;;34.03;34.74;95162.06;5087962;28;20048;-69
2021/06/23 09:52:09;;;;;;;47.42;6.82;;;;;;;34.05;38.57;95165.16;5090185;28;20130;-69
2021/06/23 09:54:53;;;;;;;52.35;7.25;;;;;;;34.15;36.75;95158.25;5085716;28;20040;-69
2021/06/23 09:57:24;;;;;;;46.00;6.80;;;;;;;34.45;38.70;95166.22;5087563;28;20051;-70
2021/06/23 09:59:58;;;;;;;49.78;7.78;;;;;;;34.97;33.83;95168.03;5088196;28;20040;-69
2021/06/23 10:02:31;;;;;;;38.78;8.13;;;;;;;34.61;31.65;95162.44;5087541;28;20052;-69
2021/06/23 10:05:01;;;;;;;44.97;7.57;;;;;;;34.93;32.24;95172.66;5087270;28;20032;-69
2021/06/23 10:07:40;;;;;;;41.97;6.53;;;;;;;35.06;34.24;95168.50;5086401;28;20490;-69
2021/06/23 10:10:08;;;;;;;32.40;6.72;;;;;;;35.37;31.14;95164.34;5086821;28;20057;-69
2021/06/23 10:12:35;;;;;;;44.00;6.13;;;;;;;35.73;32.09;95169.09;5086502;28;20509;-69
2021/06/23 10:15:03;;;;;;;40.35;6.53;;;;;;;35.64;29.80;95165.94;5084980;28;20413;-68
2021/06/23 10:17:32;;;;;;;37.35;5.70;;;;;;;35.63;30.10;95169.81;5086050;27;20549;-69
2021/06/23 10:20:02;;;;;;;29.60;6.50;;;;;;;35.69;30.18;95157.41;5087634;28;20106;-69
2021/06/23 10:22:30;;;;;;;34.90;6.35;;;;;;;35.92;28.08;95160.56;5086262;28;20040;-69
2021/06/23 10:25:03;;;;;;;37.70;5.70;;;;;;;35.93;28.19;95156.69;5087269;28;20067;-69
2021/06/23 10:27:32;;;;;;;44.22;8.32;;;;;;;35.65;30.67;95148.53;5086760;28;20067;-69
2021/06/23 10:30:00;;;;;;;49.92;6.15;;;;;;;35.23;30.13;95159.66;5086444;28;20050;-69
2021/06/23 10:32:27;;;;;;;41.70;7.03;;;;;;;35.07;31.14;95158.44;5087278;28;20064;-69
2021/06/23 10:34:54;;;;;;;47.70;7.22;;;;;;;35.02;31.55;95164.97;5087015;28;20050;-69
2021/06/23 10:37:23;;;;;;;44.30;7.53;;;;;;;35.20;29.37;95165.06;5086619;28;20548;-69
2021/06/23 10:39:52;;;;;;;29.98;5.97;;;;;;;35.28;30.11;95157.75;5086359;28;20071;-69
2021/06/23 10:42:24;;;;;;;48.60;7.38;;;;;;;35.33;29.18;95162.78;5086597;28;20048;-69
2021/06/23 10:44:53;;;;;;;33.65;5.50;;;;;;;34.91;30.02;95147.94;5085371;28;20051;-69
2021/06/23 10:47:41;;;;;;;41.30;7.72;;;;;;;35.20;31.50;95155.03;5089516;28;20048;-68
2021/06/23 10:50:10;;;;;;;40.45;6.07;;;;;;;35.60;29.63;95161.28;5087486;28;20039;-69
2021/06/23 10:52:41;;;;;;;35.63;5.85;;;;;;;35.90;29.35;95152.03;5089270;28;20054;-69
2021/06/23 10:55:13;;;;;;;33.17;6.13;;;;;;;35.48;30.95;95167.06;5086480;28;20043;-69
2021/06/23 10:57:44;;;;;;;30.98;5.75;;;;;;;34.91;29.64;95153.34;5088045;28;20548;-69
2021/06/23 11:00:11;;;;;;;36.78;6.18;;;;;;;35.28;31.35;95165.88;5086861;28;20054;-69
2021/06/23 11:02:41;;;;;;;35.97;6.40;;;;;;;35.34;30.70;95158.91;5088090;28;20067;-69
2021/06/23 11:05:10;;;;;;;42.70;6.60;;;;;;;35.58;30.63;95158.19;5085347;28;20052;-68
2021/06/23 11:07:43;;;;;;;39.85;6.85;;;;;;;35.61;28.45;95162.84;5088545;28;20048;-69
2021/06/23 11:10:16;;;;;;;30.13;5.18;;;;;;;35.52;28.31;95159.72;5084797;28;20565;-68
2021/06/23 11:12:46;;;;;;;36.38;6.72;;;;;;;35.99;29.79;95154.38;5084298;28;20044;-68
2021/06/23 11:15:16;;;;;;;35.50;7.10;;;;;;;36.39;28.54;95160.56;5085389;28;20114;-68
2021/06/23 11:17:45;;;;;;;38.47;6.68;;;;;;;36.65;29.79;95166.72;5086073;28;20048;-68
2021/06/23 11:20:38;;;;;;;44.40;6.53;;;;;;;37.29;29.01;95152.16;5084961;28;20050;-68
2021/06/23 11:23:05;;;;;;;45.17;6.13;;;;;;;37.64;29.44;95164.00;5086503;28;20043;-68
2021/06/23 11:25:34;;;;;;;40.20;6.50;;;;;;;37.66;25.41;95161.66;5085621;28;20044;-68
2021/06/23 11:28:07;;;;;;;39.90;8.55;;;;;;;37.76;28.13;95160.81;5084566;28;20056;-69
2021/06/23 11:30:52;;;;;;;26.77;7.50;;;;;;;37.12;26.32;95154.53;5084789;28;20036;-69
2021/06/23 11:33:28;;;;;;;38.42;7.47;;;;;;;37.45;27.84;95152.44;5086970;28;20444;-69
2021/06/23 11:36:01;;;;;;;40.78;8.30;;;;;;;37.52;27.34;95145.44;5086945;28;20433;-68
2021/06/23 11:38:29;;;;;;;39.55;8.38;;;;;;;37.68;27.77;95143.78;5085410;28;20067;-69
2021/06/23 11:40:58;;;;;;;36.33;8.20;;;;;;;37.99;29.16;95151.31;5086751;28;20048;-69
2021/06/23 11:43:26;;;;;;;47.60;9.50;;;;;;;37.99;27.00;95156.75;5088729;28;20051;-69
2021/06/23 11:45:54;;;;;;;33.03;8.23;;;;;;;38.15;25.98;95159.75;5085506;28;20699;-68
2021/06/23 11:48:29;;;;;;;37.95;9.18;;;;;;;37.90;28.27;95153.72;5085825;28;20046;-69
2021/06/23 11:50:56;;;;;;;48.72;9.32;;;;;;;37.45;27.35;95154.38;5086473;28;20071;-69